sensor_id;sensor_type;location;lat;lon;timestamp;P1;durP1;ratioP1;P2;durP2;ratioP2
351;SDS011;164;50.784;6.496;2022-12-29T00:00:17;0.80;;;0.30;;
351;SDS011;164;50.784;6.496;2022-12-29T00:02:45;0.57;;;0.30;;
351;SDS011;164;50.784;6.496;2022-12-29T00:05:12;0.50;;;0.30;;
351;SDS011;164;50.784;6.496;2022-12-29T00:07:39;0.60;;;0.40;;
351;SDS011;164;50.784;6.496;2022-12-29T00:10:08;0.68;;;0.50;;
351;SDS011;164;50.784;6.496;2022-12-29T00:12:35;0.60;;;0.30;;
351;SDS011;164;50.784;6.496;2022-12-29T00:15:20;0.73;;;0.50;;
351;SDS011;164;50.784;6.496;2022-12-29T00:18:05;0.70;;;0.40;;
351;SDS011;164;50.784;6.496;2022-12-29T00:20:33;1.17;;;0.40;;
351;SDS011;164;50.784;6.496;2022-12-29T00:23:18;1.83;;;0.60;;
351;SDS011;164;50.784;6.496;2022-12-29T00:26:05;0.75;;;0.63;;
351;SDS011;164;50.784;6.496;2022-12-29T00:28:54;1.58;;;0.70;;
351;SDS011;164;50.784;6.496;2022-12-29T00:31:39;1.25;;;0.60;;
351;SDS011;164;50.784;6.496;2022-12-29T00:34:23;0.85;;;0.80;;
351;SDS011;164;50.784;6.496;2022-12-29T00:37:08;1.77;;;0.73;;
351;SDS011;164;50.784;6.496;2022-12-29T00:39:36;1.70;;;0.70;;
351;SDS011;164;50.784;6.496;2022-12-29T00:42:22;1.08;;;0.70;;
351;SDS011;164;50.784;6.496;2022-12-29T00:45:07;1.02;;;1.02;;
351;SDS011;164;50.784;6.496;2022-12-29T00:47:34;0.85;;;0.60;;
351;SDS011;164;50.784;6.496;2022-12-29T00:50:01;1.00;;;0.57;;
351;SDS011;164;50.784;6.496;2022-12-29T00:52:28;1.52;;;0.80;;
351;SDS011;164;50.784;6.496;2022-12-29T00:54:55;1.80;;;0.70;;
351;SDS011;164;50.784;6.496;2022-12-29T00:57:24;0.80;;;0.63;;
351;SDS011;164;50.784;6.496;2022-12-29T00:59:51;2.42;;;1.55;;
351;SDS011;164;50.784;6.496;2022-12-29T01:02:18;1.23;;;0.80;;
351;SDS011;164;50.784;6.496;2022-12-29T01:04:45;0.77;;;0.50;;
351;SDS011;164;50.784;6.496;2022-12-29T01:07:12;0.90;;;0.57;;
351;SDS011;164;50.784;6.496;2022-12-29T01:09:40;1.20;;;0.90;;
351;SDS011;164;50.784;6.496;2022-12-29T01:12:26;0.60;;;0.43;;
351;SDS011;164;50.784;6.496;2022-12-29T01:15:10;1.00;;;0.40;;
351;SDS011;164;50.784;6.496;2022-12-29T01:17:38;2.50;;;1.20;;
351;SDS011;164;50.784;6.496;2022-12-29T01:20:06;1.88;;;0.80;;
351;SDS011;164;50.784;6.496;2022-12-29T01:22:33;1.27;;;0.57;;
351;SDS011;164;50.784;6.496;2022-12-29T01:25:00;3.35;;;1.13;;
351;SDS011;164;50.784;6.496;2022-12-29T01:27:29;0.80;;;0.70;;
351;SDS011;164;50.784;6.496;2022-12-29T01:29:56;0.80;;;0.60;;
351;SDS011;164;50.784;6.496;2022-12-29T01:32:23;1.58;;;0.68;;
351;SDS011;164;50.784;6.496;2022-12-29T01:34:51;0.70;;;0.50;;
351;SDS011;164;50.784;6.496;2022-12-29T01:37:18;0.80;;;0.50;;
351;SDS011;164;50.784;6.496;2022-12-29T01:39:45;0.95;;;0.60;;
351;SDS011;164;50.784;6.496;2022-12-29T01:42:14;1.23;;;0.90;;
351;SDS011;164;50.784;6.496;2022-12-29T01:44:49;1.48;;;0.95;;
351;SDS011;164;50.784;6.496;2022-12-29T01:47:18;2.45;;;1.00;;
351;SDS011;164;50.784;6.496;2022-12-29T01:49:47;3.17;;;1.10;;
351;SDS011;164;50.784;6.496;2022-12-29T01:52:15;2.75;;;0.88;;
351;SDS011;164;50.784;6.496;2022-12-29T01:54:43;1.38;;;0.98;;
351;SDS011;164;50.784;6.496;2022-12-29T01:57:13;0.70;;;0.65;;
351;SDS011;164;50.784;6.496;2022-12-29T01:59:42;1.25;;;0.70;;
351;SDS011;164;50.784;6.496;2022-12-29T02:02:12;1.00;;;0.90;;
351;SDS011;164;50.784;6.496;2022-12-29T02:04:40;1.40;;;1.20;;
351;SDS011;164;50.784;6.496;2022-12-29T02:07:10;1.13;;;1.02;;
351;SDS011;164;50.784;6.496;2022-12-29T02:09:38;1.17;;;1.05;;
351;SDS011;164;50.784;6.496;2022-12-29T02:12:06;1.30;;;0.85;;
351;SDS011;164;50.784;6.496;2022-12-29T02:14:34;1.10;;;0.90;;
351;SDS011;164;50.784;6.496;2022-12-29T02:17:03;1.33;;;1.20;;
351;SDS011;164;50.784;6.496;2022-12-29T02:22:22;3.28;;;1.25;;
351;SDS011;164;50.784;6.496;2022-12-29T02:25:06;0.90;;;0.73;;
351;SDS011;164;50.784;6.496;2022-12-29T02:27:44;1.13;;;1.00;;
351;SDS011;164;50.784;6.496;2022-12-29T02:30:16;1.10;;;1.00;;
351;SDS011;164;50.784;6.496;2022-12-29T02:32:51;2.70;;;0.88;;
351;SDS011;164;50.784;6.496;2022-12-29T02:35:23;1.75;;;0.90;;
351;SDS011;164;50.784;6.496;2022-12-29T02:37:55;1.92;;;0.98;;
351;SDS011;164;50.784;6.496;2022-12-29T02:40:27;1.73;;;1.20;;
351;SDS011;164;50.784;6.496;2022-12-29T02:42:59;1.90;;;1.55;;
351;SDS011;164;50.784;6.496;2022-12-29T02:45:30;1.02;;;0.45;;
351;SDS011;164;50.784;6.496;2022-12-29T02:48:01;1.20;;;0.70;;
351;SDS011;164;50.784;6.496;2022-12-29T02:50:32;2.25;;;1.25;;
351;SDS011;164;50.784;6.496;2022-12-29T02:53:01;0.90;;;0.68;;
351;SDS011;164;50.784;6.496;2022-12-29T02:55:29;1.50;;;0.88;;
351;SDS011;164;50.784;6.496;2022-12-29T02:58:08;0.85;;;0.50;;
351;SDS011;164;50.784;6.496;2022-12-29T03:00:42;1.08;;;0.70;;
351;SDS011;164;50.784;6.496;2022-12-29T03:03:16;1.65;;;1.02;;
351;SDS011;164;50.784;6.496;2022-12-29T03:06:03;0.98;;;0.88;;
351;SDS011;164;50.784;6.496;2022-12-29T03:08:34;1.98;;;0.45;;
351;SDS011;164;50.784;6.496;2022-12-29T03:11:05;0.73;;;0.50;;
351;SDS011;164;50.784;6.496;2022-12-29T03:13:55;2.55;;;0.50;;
351;SDS011;164;50.784;6.496;2022-12-29T03:16:43;2.10;;;0.75;;
351;SDS011;164;50.784;6.496;2022-12-29T03:19:14;1.65;;;0.85;;
351;SDS011;164;50.784;6.496;2022-12-29T03:21:43;1.27;;;1.08;;
351;SDS011;164;50.784;6.496;2022-12-29T03:24:29;2.65;;;0.70;;
351;SDS011;164;50.784;6.496;2022-12-29T03:26:57;3.80;;;1.15;;
351;SDS011;164;50.784;6.496;2022-12-29T03:29:26;1.20;;;0.70;;
351;SDS011;164;50.784;6.496;2022-12-29T03:37:08;1.10;;;1.00;;
351;SDS011;164;50.784;6.496;2022-12-29T03:39:38;1.00;;;0.85;;
351;SDS011;164;50.784;6.496;2022-12-29T03:42:05;1.50;;;0.77;;
351;SDS011;164;50.784;6.496;2022-12-29T03:44:37;1.00;;;0.55;;
351;SDS011;164;50.784;6.496;2022-12-29T03:47:06;1.77;;;1.02;;
351;SDS011;164;50.784;6.496;2022-12-29T03:49:33;1.15;;;0.88;;
351;SDS011;164;50.784;6.496;2022-12-29T03:52:00;1.65;;;1.10;;
351;SDS011;164;50.784;6.496;2022-12-29T03:54:30;1.15;;;0.70;;
351;SDS011;164;50.784;6.496;2022-12-29T03:56:57;1.88;;;0.73;;
351;SDS011;164;50.784;6.496;2022-12-29T03:59:24;2.85;;;0.90;;
351;SDS011;164;50.784;6.496;2022-12-29T04:01:52;0.95;;;0.70;;
351;SDS011;164;50.784;6.496;2022-12-29T04:04:20;0.95;;;0.68;;
351;SDS011;164;50.784;6.496;2022-12-29T04:06:48;1.58;;;0.80;;
351;SDS011;164;50.784;6.496;2022-12-29T04:09:15;2.90;;;1.67;;
351;SDS011;164;50.784;6.496;2022-12-29T04:11:44;1.35;;;0.60;;
351;SDS011;164;50.784;6.496;2022-12-29T04:14:12;1.02;;;0.80;;
351;SDS011;164;50.784;6.496;2022-12-29T04:16:39;1.58;;;1.00;;
351;SDS011;164;50.784;6.496;2022-12-29T04:19:06;1.80;;;0.77;;
351;SDS011;164;50.784;6.496;2022-12-29T04:21:34;1.27;;;1.00;;
351;SDS011;164;50.784;6.496;2022-12-29T04:24:02;1.10;;;0.75;;
351;SDS011;164;50.784;6.496;2022-12-29T04:32:38;1.00;;;0.88;;
351;SDS011;164;50.784;6.496;2022-12-29T04:35:05;1.00;;;0.60;;
351;SDS011;164;50.784;6.496;2022-12-29T04:37:33;1.98;;;0.68;;
351;SDS011;164;50.784;6.496;2022-12-29T04:40:00;1.35;;;0.55;;
351;SDS011;164;50.784;6.496;2022-12-29T04:42:28;1.08;;;0.43;;
351;SDS011;164;50.784;6.496;2022-12-29T04:44:55;2.25;;;0.50;;
351;SDS011;164;50.784;6.496;2022-12-29T04:47:23;0.80;;;0.60;;
351;SDS011;164;50.784;6.496;2022-12-29T04:49:52;0.77;;;0.70;;
351;SDS011;164;50.784;6.496;2022-12-29T04:52:19;1.98;;;0.63;;
351;SDS011;164;50.784;6.496;2022-12-29T04:54:47;1.58;;;0.82;;
351;SDS011;164;50.784;6.496;2022-12-29T04:57:14;3.03;;;0.88;;
351;SDS011;164;50.784;6.496;2022-12-29T04:59:42;1.95;;;0.68;;
351;SDS011;164;50.784;6.496;2022-12-29T05:02:09;2.15;;;0.70;;
351;SDS011;164;50.784;6.496;2022-12-29T05:04:36;2.03;;;0.45;;
351;SDS011;164;50.784;6.496;2022-12-29T05:07:05;1.02;;;0.50;;
351;SDS011;164;50.784;6.496;2022-12-29T05:09:32;1.52;;;0.43;;
351;SDS011;164;50.784;6.496;2022-12-29T05:12:00;1.70;;;0.70;;
351;SDS011;164;50.784;6.496;2022-12-29T05:14:27;0.70;;;0.40;;
351;SDS011;164;50.784;6.496;2022-12-29T05:16:54;0.88;;;0.45;;
351;SDS011;164;50.784;6.496;2022-12-29T05:19:22;0.70;;;0.40;;
351;SDS011;164;50.784;6.496;2022-12-29T05:21:49;1.67;;;0.52;;
351;SDS011;164;50.784;6.496;2022-12-29T05:24:18;1.75;;;0.82;;
351;SDS011;164;50.784;6.496;2022-12-29T05:26:46;1.90;;;0.60;;
351;SDS011;164;50.784;6.496;2022-12-29T05:29:13;2.75;;;0.75;;
351;SDS011;164;50.784;6.496;2022-12-29T05:31:40;1.30;;;0.73;;
351;SDS011;164;50.784;6.496;2022-12-29T05:34:08;2.40;;;0.60;;
351;SDS011;164;50.784;6.496;2022-12-29T05:36:36;0.80;;;0.60;;
351;SDS011;164;50.784;6.496;2022-12-29T05:39:03;0.80;;;0.40;;
351;SDS011;164;50.784;6.496;2022-12-29T05:41:34;1.35;;;0.55;;
351;SDS011;164;50.784;6.496;2022-12-29T05:44:01;0.80;;;0.50;;
351;SDS011;164;50.784;6.496;2022-12-29T05:46:28;1.02;;;0.45;;
351;SDS011;164;50.784;6.496;2022-12-29T05:48:55;1.70;;;0.60;;
351;SDS011;164;50.784;6.496;2022-12-29T05:51:23;1.35;;;0.60;;
351;SDS011;164;50.784;6.496;2022-12-29T05:53:50;0.50;;;0.35;;
351;SDS011;164;50.784;6.496;2022-12-29T05:56:17;1.27;;;0.47;;
351;SDS011;164;50.784;6.496;2022-12-29T05:58:46;1.13;;;0.40;;
351;SDS011;164;50.784;6.496;2022-12-29T06:01:13;0.57;;;0.50;;
351;SDS011;164;50.784;6.496;2022-12-29T06:03:40;0.88;;;0.40;;
351;SDS011;164;50.784;6.496;2022-12-29T06:06:07;1.10;;;0.50;;
351;SDS011;164;50.784;6.496;2022-12-29T06:08:35;1.40;;;0.43;;
351;SDS011;164;50.784;6.496;2022-12-29T06:11:02;0.82;;;0.60;;
351;SDS011;164;50.784;6.496;2022-12-29T06:13:29;1.15;;;0.88;;
351;SDS011;164;50.784;6.496;2022-12-29T06:15:59;1.15;;;0.30;;
351;SDS011;164;50.784;6.496;2022-12-29T06:18:27;2.35;;;0.70;;
351;SDS011;164;50.784;6.496;2022-12-29T06:20:54;2.40;;;1.33;;
351;SDS011;164;50.784;6.496;2022-12-29T06:23:21;1.00;;;0.80;;
351;SDS011;164;50.784;6.496;2022-12-29T06:25:48;0.60;;;0.50;;
351;SDS011;164;50.784;6.496;2022-12-29T06:28:16;0.73;;;0.50;;
351;SDS011;164;50.784;6.496;2022-12-29T06:30:43;1.48;;;0.60;;
351;SDS011;164;50.784;6.496;2022-12-29T06:33:14;1.35;;;0.60;;
351;SDS011;164;50.784;6.496;2022-12-29T06:35:42;0.95;;;0.43;;
351;SDS011;164;50.784;6.496;2022-12-29T06:38:10;0.70;;;0.45;;
351;SDS011;164;50.784;6.496;2022-12-29T06:40:38;0.90;;;0.63;;
351;SDS011;164;50.784;6.496;2022-12-29T06:43:07;1.85;;;1.55;;
351;SDS011;164;50.784;6.496;2022-12-29T06:45:35;1.10;;;0.60;;
351;SDS011;164;50.784;6.496;2022-12-29T06:48:04;1.15;;;0.40;;
351;SDS011;164;50.784;6.496;2022-12-29T06:50:33;0.85;;;0.70;;
351;SDS011;164;50.784;6.496;2022-12-29T06:53:01;2.72;;;0.60;;
351;SDS011;164;50.784;6.496;2022-12-29T06:55:28;1.33;;;0.68;;
351;SDS011;164;50.784;6.496;2022-12-29T06:57:55;2.42;;;0.60;;
351;SDS011;164;50.784;6.496;2022-12-29T07:00:23;3.20;;;0.60;;
351;SDS011;164;50.784;6.496;2022-12-29T07:02:50;3.45;;;0.80;;
351;SDS011;164;50.784;6.496;2022-12-29T07:05:18;1.30;;;0.70;;
351;SDS011;164;50.784;6.496;2022-12-29T07:07:46;1.42;;;0.40;;
351;SDS011;164;50.784;6.496;2022-12-29T07:10:13;1.30;;;0.50;;
351;SDS011;164;50.784;6.496;2022-12-29T07:12:41;2.08;;;0.90;;
351;SDS011;164;50.784;6.496;2022-12-29T07:15:09;0.85;;;0.50;;
351;SDS011;164;50.784;6.496;2022-12-29T07:17:37;1.95;;;0.50;;
351;SDS011;164;50.784;6.496;2022-12-29T07:20:04;1.30;;;0.68;;
351;SDS011;164;50.784;6.496;2022-12-29T07:22:32;1.35;;;0.40;;
351;SDS011;164;50.784;6.496;2022-12-29T07:25:00;1.63;;;0.63;;
351;SDS011;164;50.784;6.496;2022-12-29T07:27:28;2.55;;;1.02;;
351;SDS011;164;50.784;6.496;2022-12-29T07:29:55;2.20;;;0.90;;
351;SDS011;164;50.784;6.496;2022-12-29T07:32:22;1.70;;;0.73;;
351;SDS011;164;50.784;6.496;2022-12-29T07:34:50;1.15;;;0.45;;
351;SDS011;164;50.784;6.496;2022-12-29T07:37:19;1.50;;;1.00;;
351;SDS011;164;50.784;6.496;2022-12-29T07:39:46;1.73;;;0.50;;
351;SDS011;164;50.784;6.496;2022-12-29T07:42:15;3.20;;;1.23;;
351;SDS011;164;50.784;6.496;2022-12-29T07:44:43;1.58;;;0.70;;
351;SDS011;164;50.784;6.496;2022-12-29T07:47:10;1.60;;;0.95;;
351;SDS011;164;50.784;6.496;2022-12-29T07:49:39;2.03;;;1.08;;
351;SDS011;164;50.784;6.496;2022-12-29T07:52:06;2.38;;;1.00;;
351;SDS011;164;50.784;6.496;2022-12-29T07:54:33;6.30;;;1.15;;
351;SDS011;164;50.784;6.496;2022-12-29T07:57:00;3.15;;;0.98;;
351;SDS011;164;50.784;6.496;2022-12-29T07:59:29;1.85;;;0.50;;
351;SDS011;164;50.784;6.496;2022-12-29T08:01:57;2.13;;;1.00;;
351;SDS011;164;50.784;6.496;2022-12-29T08:04:24;2.65;;;1.10;;
351;SDS011;164;50.784;6.496;2022-12-29T08:06:51;2.85;;;1.00;;
351;SDS011;164;50.784;6.496;2022-12-29T08:09:19;1.58;;;0.80;;
351;SDS011;164;50.784;6.496;2022-12-29T08:11:46;3.17;;;0.85;;
351;SDS011;164;50.784;6.496;2022-12-29T08:14:13;2.17;;;1.00;;
351;SDS011;164;50.784;6.496;2022-12-29T08:16:42;4.43;;;1.15;;
351;SDS011;164;50.784;6.496;2022-12-29T08:19:10;3.58;;;0.77;;
351;SDS011;164;50.784;6.496;2022-12-29T08:21:37;1.98;;;0.70;;
351;SDS011;164;50.784;6.496;2022-12-29T08:24:05;4.85;;;2.33;;
351;SDS011;164;50.784;6.496;2022-12-29T08:26:33;2.53;;;1.95;;
351;SDS011;164;50.784;6.496;2022-12-29T08:29:00;1.30;;;0.55;;
351;SDS011;164;50.784;6.496;2022-12-29T08:31:27;1.85;;;1.27;;
351;SDS011;164;50.784;6.496;2022-12-29T08:33:56;2.70;;;1.00;;
351;SDS011;164;50.784;6.496;2022-12-29T08:36:25;3.63;;;1.15;;
351;SDS011;164;50.784;6.496;2022-12-29T08:38:52;2.33;;;0.90;;
351;SDS011;164;50.784;6.496;2022-12-29T08:41:19;2.38;;;0.82;;
351;SDS011;164;50.784;6.496;2022-12-29T08:43:47;5.22;;;1.75;;
351;SDS011;164;50.784;6.496;2022-12-29T08:46:14;3.05;;;1.00;;
351;SDS011;164;50.784;6.496;2022-12-29T08:48:41;2.40;;;0.70;;
351;SDS011;164;50.784;6.496;2022-12-29T08:51:10;3.35;;;1.20;;
351;SDS011;164;50.784;6.496;2022-12-29T08:53:38;4.78;;;0.90;;
351;SDS011;164;50.784;6.496;2022-12-29T08:56:06;2.97;;;1.27;;
351;SDS011;164;50.784;6.496;2022-12-29T08:58:33;3.50;;;0.90;;
351;SDS011;164;50.784;6.496;2022-12-29T09:01:01;4.13;;;1.60;;
351;SDS011;164;50.784;6.496;2022-12-29T09:03:28;3.80;;;0.80;;
351;SDS011;164;50.784;6.496;2022-12-29T09:05:55;2.13;;;1.42;;
351;SDS011;164;50.784;6.496;2022-12-29T09:08:24;3.63;;;0.90;;
351;SDS011;164;50.784;6.496;2022-12-29T09:10:51;3.20;;;0.80;;
351;SDS011;164;50.784;6.496;2022-12-29T09:13:19;3.72;;;0.88;;
351;SDS011;164;50.784;6.496;2022-12-29T09:15:55;2.88;;;1.20;;
351;SDS011;164;50.784;6.496;2022-12-29T09:18:24;2.38;;;1.00;;
351;SDS011;164;50.784;6.496;2022-12-29T09:20:55;2.10;;;0.80;;
351;SDS011;164;50.784;6.496;2022-12-29T09:23:23;3.40;;;1.02;;
351;SDS011;164;50.784;6.496;2022-12-29T09:25:51;2.10;;;1.02;;
351;SDS011;164;50.784;6.496;2022-12-29T09:28:18;3.00;;;1.10;;
351;SDS011;164;50.784;6.496;2022-12-29T09:30:46;3.22;;;1.40;;
351;SDS011;164;50.784;6.496;2022-12-29T09:33:13;2.05;;;0.98;;
351;SDS011;164;50.784;6.496;2022-12-29T09:35:41;2.80;;;0.95;;
351;SDS011;164;50.784;6.496;2022-12-29T09:38:09;2.53;;;1.35;;
351;SDS011;164;50.784;6.496;2022-12-29T09:40:37;5.70;;;0.88;;
351;SDS011;164;50.784;6.496;2022-12-29T09:43:17;2.25;;;0.75;;
351;SDS011;164;50.784;6.496;2022-12-29T09:45:50;2.90;;;0.82;;
351;SDS011;164;50.784;6.496;2022-12-29T09:48:22;4.43;;;1.17;;
351;SDS011;164;50.784;6.496;2022-12-29T09:50:51;3.47;;;1.08;;
351;SDS011;164;50.784;6.496;2022-12-29T09:53:20;3.65;;;0.93;;
351;SDS011;164;50.784;6.496;2022-12-29T09:55:51;3.63;;;0.80;;
351;SDS011;164;50.784;6.496;2022-12-29T09:58:20;5.63;;;1.50;;
351;SDS011;164;50.784;6.496;2022-12-29T10:00:49;1.85;;;0.60;;
351;SDS011;164;50.784;6.496;2022-12-29T10:03:18;4.28;;;1.52;;
351;SDS011;164;50.784;6.496;2022-12-29T10:05:47;2.85;;;1.35;;
351;SDS011;164;50.784;6.496;2022-12-29T10:08:19;2.85;;;0.95;;
351;SDS011;164;50.784;6.496;2022-12-29T10:10:53;2.75;;;1.45;;
351;SDS011;164;50.784;6.496;2022-12-29T10:13:24;4.05;;;1.35;;
351;SDS011;164;50.784;6.496;2022-12-29T10:15:56;4.35;;;1.45;;
351;SDS011;164;50.784;6.496;2022-12-29T10:18:29;2.42;;;1.10;;
351;SDS011;164;50.784;6.496;2022-12-29T10:21:00;5.35;;;2.10;;
351;SDS011;164;50.784;6.496;2022-12-29T10:23:33;2.83;;;0.90;;
351;SDS011;164;50.784;6.496;2022-12-29T10:26:04;3.45;;;0.93;;
351;SDS011;164;50.784;6.496;2022-12-29T10:28:35;3.55;;;1.70;;
351;SDS011;164;50.784;6.496;2022-12-29T10:31:05;9.02;;;2.15;;
351;SDS011;164;50.784;6.496;2022-12-29T10:33:36;4.00;;;1.30;;
351;SDS011;164;50.784;6.496;2022-12-29T10:36:09;3.45;;;1.48;;
351;SDS011;164;50.784;6.496;2022-12-29T10:38:38;1.60;;;1.00;;
351;SDS011;164;50.784;6.496;2022-12-29T10:41:11;4.25;;;1.10;;
351;SDS011;164;50.784;6.496;2022-12-29T10:43:42;3.78;;;1.10;;
351;SDS011;164;50.784;6.496;2022-12-29T10:46:10;4.55;;;1.73;;
351;SDS011;164;50.784;6.496;2022-12-29T10:48:38;1.45;;;0.82;;
351;SDS011;164;50.784;6.496;2022-12-29T10:51:10;3.22;;;1.10;;
351;SDS011;164;50.784;6.496;2022-12-29T10:53:40;2.45;;;0.82;;
351;SDS011;164;50.784;6.496;2022-12-29T10:56:13;4.60;;;1.23;;
351;SDS011;164;50.784;6.496;2022-12-29T10:58:42;4.60;;;1.38;;
351;SDS011;164;50.784;6.496;2022-12-29T11:01:10;5.25;;;1.55;;
351;SDS011;164;50.784;6.496;2022-12-29T11:06:15;3.63;;;1.05;;
351;SDS011;164;50.784;6.496;2022-12-29T11:08:47;3.97;;;1.02;;
351;SDS011;164;50.784;6.496;2022-12-29T11:11:23;2.95;;;1.10;;
351;SDS011;164;50.784;6.496;2022-12-29T11:13:55;4.05;;;1.00;;
351;SDS011;164;50.784;6.496;2022-12-29T11:16:27;2.35;;;1.17;;
351;SDS011;164;50.784;6.496;2022-12-29T11:18:55;3.70;;;1.70;;
351;SDS011;164;50.784;6.496;2022-12-29T11:21:27;3.75;;;1.60;;
351;SDS011;164;50.784;6.496;2022-12-29T11:23:55;3.42;;;0.90;;
351;SDS011;164;50.784;6.496;2022-12-29T11:26:24;6.38;;;2.22;;
351;SDS011;164;50.784;6.496;2022-12-29T11:31:40;1.80;;;1.30;;
351;SDS011;164;50.784;6.496;2022-12-29T11:34:07;2.35;;;0.80;;
351;SDS011;164;50.784;6.496;2022-12-29T11:36:34;6.53;;;1.00;;
351;SDS011;164;50.784;6.496;2022-12-29T11:39:03;4.25;;;1.00;;
351;SDS011;164;50.784;6.496;2022-12-29T11:41:31;3.13;;;1.02;;
351;SDS011;164;50.784;6.496;2022-12-29T11:43:59;6.93;;;1.40;;
351;SDS011;164;50.784;6.496;2022-12-29T11:46:28;6.75;;;2.90;;
351;SDS011;164;50.784;6.496;2022-12-29T11:48:56;2.63;;;1.20;;
351;SDS011;164;50.784;6.496;2022-12-29T11:51:25;2.60;;;0.90;;
351;SDS011;164;50.784;6.496;2022-12-29T11:53:55;5.72;;;1.15;;
351;SDS011;164;50.784;6.496;2022-12-29T11:56:32;1.75;;;1.30;;
351;SDS011;164;50.784;6.496;2022-12-29T12:01:42;3.72;;;1.08;;
351;SDS011;164;50.784;6.496;2022-12-29T12:04:12;4.07;;;1.08;;
351;SDS011;164;50.784;6.496;2022-12-29T12:06:42;1.55;;;0.80;;
351;SDS011;164;50.784;6.496;2022-12-29T12:09:14;6.22;;;1.90;;
351;SDS011;164;50.784;6.496;2022-12-29T12:11:44;4.65;;;1.35;;
351;SDS011;164;50.784;6.496;2022-12-29T12:14:12;5.60;;;1.38;;
351;SDS011;164;50.784;6.496;2022-12-29T12:16:46;5.50;;;1.33;;
351;SDS011;164;50.784;6.496;2022-12-29T12:19:15;5.32;;;1.02;;
351;SDS011;164;50.784;6.496;2022-12-29T12:21:47;3.60;;;1.40;;
351;SDS011;164;50.784;6.496;2022-12-29T12:24:26;3.13;;;1.00;;
351;SDS011;164;50.784;6.496;2022-12-29T12:27:00;4.40;;;1.30;;
351;SDS011;164;50.784;6.496;2022-12-29T12:29:32;6.57;;;1.30;;
351;SDS011;164;50.784;6.496;2022-12-29T12:32:02;6.45;;;1.15;;
351;SDS011;164;50.784;6.496;2022-12-29T12:34:32;3.80;;;1.27;;
351;SDS011;164;50.784;6.496;2022-12-29T12:39:49;3.55;;;1.20;;
351;SDS011;164;50.784;6.496;2022-12-29T12:42:26;1.45;;;0.90;;
351;SDS011;164;50.784;6.496;2022-12-29T12:44:58;4.30;;;1.50;;
351;SDS011;164;50.784;6.496;2022-12-29T12:47:33;5.10;;;1.20;;
351;SDS011;164;50.784;6.496;2022-12-29T12:50:09;4.15;;;1.35;;
351;SDS011;164;50.784;6.496;2022-12-29T12:52:42;3.70;;;1.02;;
351;SDS011;164;50.784;6.496;2022-12-29T12:55:22;2.92;;;1.23;;
351;SDS011;164;50.784;6.496;2022-12-29T12:57:57;5.53;;;1.10;;
351;SDS011;164;50.784;6.496;2022-12-29T13:00:26;10.70;;;1.52;;
351;SDS011;164;50.784;6.496;2022-12-29T13:02:59;4.18;;;1.50;;
351;SDS011;164;50.784;6.496;2022-12-29T13:05:33;4.82;;;1.13;;
351;SDS011;164;50.784;6.496;2022-12-29T13:08:10;4.75;;;1.10;;
351;SDS011;164;50.784;6.496;2022-12-29T13:10:50;4.20;;;1.77;;
351;SDS011;164;50.784;6.496;2022-12-29T13:13:33;5.40;;;1.55;;
351;SDS011;164;50.784;6.496;2022-12-29T13:16:04;3.08;;;1.30;;
351;SDS011;164;50.784;6.496;2022-12-29T13:18:34;2.05;;;0.85;;
351;SDS011;164;50.784;6.496;2022-12-29T13:21:06;4.25;;;2.15;;
351;SDS011;164;50.784;6.496;2022-12-29T13:23:38;5.47;;;1.15;;
351;SDS011;164;50.784;6.496;2022-12-29T13:26:08;1.67;;;1.33;;
351;SDS011;164;50.784;6.496;2022-12-29T13:28:41;3.22;;;1.63;;
351;SDS011;164;50.784;6.496;2022-12-29T13:31:12;3.67;;;1.40;;
351;SDS011;164;50.784;6.496;2022-12-29T13:33:42;4.65;;;1.65;;
351;SDS011;164;50.784;6.496;2022-12-29T13:36:18;2.97;;;1.02;;
351;SDS011;164;50.784;6.496;2022-12-29T13:38:48;4.15;;;1.33;;
351;SDS011;164;50.784;6.496;2022-12-29T13:41:18;4.00;;;1.33;;
351;SDS011;164;50.784;6.496;2022-12-29T13:43:47;3.38;;;1.65;;
351;SDS011;164;50.784;6.496;2022-12-29T13:46:18;6.50;;;1.95;;
351;SDS011;164;50.784;6.496;2022-12-29T13:48:48;3.55;;;1.30;;
351;SDS011;164;50.784;6.496;2022-12-29T13:51:17;3.53;;;1.45;;
351;SDS011;164;50.784;6.496;2022-12-29T13:53:52;6.07;;;1.42;;
351;SDS011;164;50.784;6.496;2022-12-29T13:56:23;6.05;;;1.92;;
351;SDS011;164;50.784;6.496;2022-12-29T13:58:56;3.45;;;1.00;;
351;SDS011;164;50.784;6.496;2022-12-29T14:01:27;4.72;;;1.52;;
351;SDS011;164;50.784;6.496;2022-12-29T14:03:56;2.90;;;1.00;;
351;SDS011;164;50.784;6.496;2022-12-29T14:06:25;4.88;;;1.98;;
351;SDS011;164;50.784;6.496;2022-12-29T14:08:54;7.00;;;1.38;;
351;SDS011;164;50.784;6.496;2022-12-29T14:11:23;3.13;;;1.80;;
351;SDS011;164;50.784;6.496;2022-12-29T14:13:51;6.63;;;1.77;;
351;SDS011;164;50.784;6.496;2022-12-29T14:16:27;6.50;;;2.65;;
351;SDS011;164;50.784;6.496;2022-12-29T14:18:56;3.53;;;1.58;;
351;SDS011;164;50.784;6.496;2022-12-29T14:21:25;3.42;;;1.58;;
351;SDS011;164;50.784;6.496;2022-12-29T14:24:02;4.28;;;1.40;;
351;SDS011;164;50.784;6.496;2022-12-29T14:26:47;5.75;;;1.60;;
351;SDS011;164;50.784;6.496;2022-12-29T14:32:02;4.10;;;1.50;;
351;SDS011;164;50.784;6.496;2022-12-29T14:34:30;3.70;;;1.50;;
351;SDS011;164;50.784;6.496;2022-12-29T14:36:58;3.90;;;1.60;;
351;SDS011;164;50.784;6.496;2022-12-29T14:39:28;3.33;;;1.27;;
351;SDS011;164;50.784;6.496;2022-12-29T14:41:59;4.00;;;1.30;;
351;SDS011;164;50.784;6.496;2022-12-29T14:44:26;4.78;;;2.15;;
351;SDS011;164;50.784;6.496;2022-12-29T14:46:57;7.82;;;1.70;;
351;SDS011;164;50.784;6.496;2022-12-29T14:49:28;3.17;;;1.15;;
351;SDS011;164;50.784;6.496;2022-12-29T14:52:04;3.60;;;1.05;;
351;SDS011;164;50.784;6.496;2022-12-29T14:57:33;4.07;;;1.65;;
351;SDS011;164;50.784;6.496;2022-12-29T15:00:04;6.80;;;1.98;;
351;SDS011;164;50.784;6.496;2022-12-29T15:02:33;3.70;;;1.73;;
351;SDS011;164;50.784;6.496;2022-12-29T15:05:05;4.45;;;1.45;;
351;SDS011;164;50.784;6.496;2022-12-29T15:07:32;5.25;;;1.80;;
351;SDS011;164;50.784;6.496;2022-12-29T15:10:03;3.13;;;1.35;;
351;SDS011;164;50.784;6.496;2022-12-29T15:12:33;5.65;;;2.00;;
351;SDS011;164;50.784;6.496;2022-12-29T15:15:10;6.68;;;2.20;;
351;SDS011;164;50.784;6.496;2022-12-29T15:17:43;5.38;;;1.52;;
351;SDS011;164;50.784;6.496;2022-12-29T15:20:17;4.28;;;1.75;;
351;SDS011;164;50.784;6.496;2022-12-29T15:22:47;3.53;;;1.65;;
351;SDS011;164;50.784;6.496;2022-12-29T15:25:17;6.07;;;1.20;;
351;SDS011;164;50.784;6.496;2022-12-29T15:27:48;11.88;;;1.73;;
351;SDS011;164;50.784;6.496;2022-12-29T15:30:15;6.25;;;1.40;;
351;SDS011;164;50.784;6.496;2022-12-29T15:32:46;5.45;;;1.50;;
351;SDS011;164;50.784;6.496;2022-12-29T15:35:23;4.63;;;2.08;;
351;SDS011;164;50.784;6.496;2022-12-29T15:37:51;5.85;;;1.90;;
351;SDS011;164;50.784;6.496;2022-12-29T15:40:21;5.85;;;1.88;;
351;SDS011;164;50.784;6.496;2022-12-29T15:42:52;4.20;;;2.15;;
351;SDS011;164;50.784;6.496;2022-12-29T15:45:23;4.90;;;2.35;;
351;SDS011;164;50.784;6.496;2022-12-29T15:47:55;4.78;;;2.40;;
351;SDS011;164;50.784;6.496;2022-12-29T15:50:24;4.75;;;2.30;;
351;SDS011;164;50.784;6.496;2022-12-29T15:52:52;9.13;;;3.40;;
351;SDS011;164;50.784;6.496;2022-12-29T15:55:21;6.40;;;2.90;;
351;SDS011;164;50.784;6.496;2022-12-29T15:57:50;4.47;;;2.53;;
351;SDS011;164;50.784;6.496;2022-12-29T16:00:22;6.30;;;2.72;;
351;SDS011;164;50.784;6.496;2022-12-29T16:02:51;4.85;;;2.70;;
351;SDS011;164;50.784;6.496;2022-12-29T16:05:19;7.47;;;3.30;;
351;SDS011;164;50.784;6.496;2022-12-29T16:07:55;4.50;;;2.50;;
351;SDS011;164;50.784;6.496;2022-12-29T16:10:25;7.82;;;2.67;;
351;SDS011;164;50.784;6.496;2022-12-29T16:12:54;9.75;;;3.47;;
351;SDS011;164;50.784;6.496;2022-12-29T16:15:21;6.00;;;2.55;;
351;SDS011;164;50.784;6.496;2022-12-29T16:17:53;8.23;;;2.47;;
351;SDS011;164;50.784;6.496;2022-12-29T16:20:21;6.40;;;2.60;;
351;SDS011;164;50.784;6.496;2022-12-29T16:22:51;4.28;;;1.98;;
351;SDS011;164;50.784;6.496;2022-12-29T16:25:22;8.27;;;2.38;;
351;SDS011;164;50.784;6.496;2022-12-29T16:27:50;5.22;;;2.55;;
351;SDS011;164;50.784;6.496;2022-12-29T16:30:19;7.63;;;2.30;;
351;SDS011;164;50.784;6.496;2022-12-29T16:32:47;4.97;;;1.95;;